sensor_id;sensor_type;location;lat;lon;timestamp;P1;durP1;ratioP1;P2;durP2;ratioP2
44722;SDS011;30451;48.638;10.624;2023-09-19T00:00:26;1.00;;;0.70;;
44722;SDS011;30451;48.638;10.624;2023-09-19T00:02:56;0.95;;;0.65;;
44722;SDS011;30451;48.638;10.624;2023-09-19T00:05:25;0.80;;;0.70;;
44722;SDS011;30451;48.638;10.624;2023-09-19T00:07:53;0.90;;;0.70;;
44722;SDS011;30451;48.638;10.624;2023-09-19T00:10:23;1.08;;;0.80;;
44722;SDS011;30451;48.638;10.624;2023-09-19T00:12:50;0.80;;;0.63;;
44722;SDS011;30451;48.638;10.624;2023-09-19T00:15:18;0.90;;;0.70;;
44722;SDS011;30451;48.638;10.624;2023-09-19T00:17:44;0.63;;;0.60;;
44722;SDS011;30451;48.638;10.624;2023-09-19T00:20:10;1.05;;;0.70;;
44722;SDS011;30451;48.638;10.624;2023-09-19T00:22:41;1.20;;;0.90;;
44722;SDS011;30451;48.638;10.624;2023-09-19T00:25:10;0.68;;;0.45;;
44722;SDS011;30451;48.638;10.624;2023-09-19T00:27:40;1.35;;;0.70;;
44722;SDS011;30451;48.638;10.624;2023-09-19T00:30:07;1.90;;;0.80;;
44722;SDS011;30451;48.638;10.624;2023-09-19T00:32:39;1.20;;;0.75;;
44722;SDS011;30451;48.638;10.624;2023-09-19T00:35:06;1.85;;;0.70;;
44722;SDS011;30451;48.638;10.624;2023-09-19T00:37:34;1.00;;;0.70;;
44722;SDS011;30451;48.638;10.624;2023-09-19T00:40:00;1.08;;;0.70;;
44722;SDS011;30451;48.638;10.624;2023-09-19T00:42:27;0.93;;;0.70;;
44722;SDS011;30451;48.638;10.624;2023-09-19T00:44:53;1.33;;;0.70;;
44722;SDS011;30451;48.638;10.624;2023-09-19T00:47:19;0.60;;;0.60;;
44722;SDS011;30451;48.638;10.624;2023-09-19T00:49:45;0.75;;;0.60;;
44722;SDS011;30451;48.638;10.624;2023-09-19T00:52:14;0.75;;;0.60;;
44722;SDS011;30451;48.638;10.624;2023-09-19T00:54:41;0.98;;;0.70;;
44722;SDS011;30451;48.638;10.624;2023-09-19T00:57:06;0.90;;;0.80;;
44722;SDS011;30451;48.638;10.624;2023-09-19T00:59:34;1.02;;;0.70;;
44722;SDS011;30451;48.638;10.624;2023-09-19T01:02:01;1.02;;;0.73;;
44722;SDS011;30451;48.638;10.624;2023-09-19T01:04:28;1.13;;;0.70;;
44722;SDS011;30451;48.638;10.624;2023-09-19T01:06:53;1.75;;;0.60;;
44722;SDS011;30451;48.638;10.624;2023-09-19T01:09:20;1.08;;;0.65;;
44722;SDS011;30451;48.638;10.624;2023-09-19T01:11:47;0.77;;;0.60;;
44722;SDS011;30451;48.638;10.624;2023-09-19T01:14:28;1.33;;;0.80;;
44722;SDS011;30451;48.638;10.624;2023-09-19T01:22:52;0.98;;;0.60;;
44722;SDS011;30451;48.638;10.624;2023-09-19T01:30:56;0.77;;;0.60;;
44722;SDS011;30451;48.638;10.624;2023-09-19T01:33:24;0.55;;;0.55;;
44722;SDS011;30451;48.638;10.624;2023-09-19T01:35:51;1.05;;;0.60;;
44722;SDS011;30451;48.638;10.624;2023-09-19T01:38:18;0.60;;;0.50;;
44722;SDS011;30451;48.638;10.624;2023-09-19T01:40:47;1.10;;;0.65;;
44722;SDS011;30451;48.638;10.624;2023-09-19T01:43:37;1.23;;;0.70;;
44722;SDS011;30451;48.638;10.624;2023-09-19T01:51:08;0.70;;;0.60;;
44722;SDS011;30451;48.638;10.624;2023-09-19T01:53:38;0.60;;;0.60;;
44722;SDS011;30451;48.638;10.624;2023-09-19T01:56:25;1.02;;;0.60;;
44722;SDS011;30451;48.638;10.624;2023-09-19T01:59:02;0.80;;;0.70;;
44722;SDS011;30451;48.638;10.624;2023-09-19T02:01:34;0.57;;;0.57;;
44722;SDS011;30451;48.638;10.624;2023-09-19T02:04:02;1.00;;;0.68;;
44722;SDS011;30451;48.638;10.624;2023-09-19T02:06:28;1.45;;;0.70;;
44722;SDS011;30451;48.638;10.624;2023-09-19T02:08:54;1.25;;;0.80;;
44722;SDS011;30451;48.638;10.624;2023-09-19T02:11:20;0.65;;;0.60;;
44722;SDS011;30451;48.638;10.624;2023-09-19T02:13:46;0.63;;;0.60;;
44722;SDS011;30451;48.638;10.624;2023-09-19T02:16:12;1.10;;;0.88;;
44722;SDS011;30451;48.638;10.624;2023-09-19T02:18:38;0.68;;;0.60;;
44722;SDS011;30451;48.638;10.624;2023-09-19T02:21:04;1.00;;;0.60;;
44722;SDS011;30451;48.638;10.624;2023-09-19T02:23:32;0.75;;;0.60;;
44722;SDS011;30451;48.638;10.624;2023-09-19T02:25:58;1.13;;;0.70;;
44722;SDS011;30451;48.638;10.624;2023-09-19T02:28:29;1.00;;;0.50;;
44722;SDS011;30451;48.638;10.624;2023-09-19T02:31:00;1.00;;;0.70;;
44722;SDS011;30451;48.638;10.624;2023-09-19T02:33:26;0.52;;;0.52;;
44722;SDS011;30451;48.638;10.624;2023-09-19T02:35:58;0.80;;;0.60;;
44722;SDS011;30451;48.638;10.624;2023-09-19T02:38:27;1.15;;;0.70;;
44722;SDS011;30451;48.638;10.624;2023-09-19T02:40:53;0.65;;;0.57;;
44722;SDS011;30451;48.638;10.624;2023-09-19T02:43:20;0.95;;;0.70;;
44722;SDS011;30451;48.638;10.624;2023-09-19T02:45:46;0.60;;;0.55;;
44722;SDS011;30451;48.638;10.624;2023-09-19T02:48:14;1.10;;;0.70;;
44722;SDS011;30451;48.638;10.624;2023-09-19T02:50:40;0.77;;;0.60;;
44722;SDS011;30451;48.638;10.624;2023-09-19T02:53:07;0.60;;;0.50;;
44722;SDS011;30451;48.638;10.624;2023-09-19T02:55:32;0.73;;;0.57;;
44722;SDS011;30451;48.638;10.624;2023-09-19T02:57:59;0.73;;;0.60;;
44722;SDS011;30451;48.638;10.624;2023-09-19T03:00:26;0.73;;;0.70;;
44722;SDS011;30451;48.638;10.624;2023-09-19T03:02:53;0.85;;;0.63;;
44722;SDS011;30451;48.638;10.624;2023-09-19T03:05:20;0.80;;;0.60;;
44722;SDS011;30451;48.638;10.624;2023-09-19T03:07:46;0.85;;;0.60;;
44722;SDS011;30451;48.638;10.624;2023-09-19T03:10:15;0.63;;;0.50;;
44722;SDS011;30451;48.638;10.624;2023-09-19T03:12:45;0.82;;;0.55;;
44722;SDS011;30451;48.638;10.624;2023-09-19T03:15:11;0.63;;;0.55;;
44722;SDS011;30451;48.638;10.624;2023-09-19T03:17:37;1.05;;;0.70;;
44722;SDS011;30451;48.638;10.624;2023-09-19T03:20:03;0.70;;;0.50;;
44722;SDS011;30451;48.638;10.624;2023-09-19T03:22:34;0.63;;;0.50;;
44722;SDS011;30451;48.638;10.624;2023-09-19T03:24:59;0.45;;;0.45;;
44722;SDS011;30451;48.638;10.624;2023-09-19T03:27:26;0.50;;;0.50;;
44722;SDS011;30451;48.638;10.624;2023-09-19T03:29:52;1.02;;;0.60;;
44722;SDS011;30451;48.638;10.624;2023-09-19T03:32:18;0.82;;;0.65;;
44722;SDS011;30451;48.638;10.624;2023-09-19T03:34:44;0.73;;;0.60;;
44722;SDS011;30451;48.638;10.624;2023-09-19T03:37:10;0.60;;;0.60;;
44722;SDS011;30451;48.638;10.624;2023-09-19T03:39:35;0.75;;;0.68;;
44722;SDS011;30451;48.638;10.624;2023-09-19T03:42:01;0.93;;;0.60;;
44722;SDS011;30451;48.638;10.624;2023-09-19T03:44:29;0.75;;;0.63;;
44722;SDS011;30451;48.638;10.624;2023-09-19T03:46:55;0.50;;;0.50;;
44722;SDS011;30451;48.638;10.624;2023-09-19T03:49:21;0.98;;;0.55;;
44722;SDS011;30451;48.638;10.624;2023-09-19T03:51:47;0.77;;;0.60;;
44722;SDS011;30451;48.638;10.624;2023-09-19T03:54:13;0.88;;;0.60;;
44722;SDS011;30451;48.638;10.624;2023-09-19T03:56:38;0.45;;;0.45;;
44722;SDS011;30451;48.638;10.624;2023-09-19T03:59:04;0.55;;;0.55;;
44722;SDS011;30451;48.638;10.624;2023-09-19T04:01:30;0.50;;;0.50;;
44722;SDS011;30451;48.638;10.624;2023-09-19T04:03:57;1.00;;;0.50;;
44722;SDS011;30451;48.638;10.624;2023-09-19T04:06:23;0.55;;;0.55;;
44722;SDS011;30451;48.638;10.624;2023-09-19T04:08:49;0.90;;;0.60;;
44722;SDS011;30451;48.638;10.624;2023-09-19T04:11:15;1.00;;;0.68;;
44722;SDS011;30451;48.638;10.624;2023-09-19T04:13:40;0.80;;;0.63;;
44722;SDS011;30451;48.638;10.624;2023-09-19T04:16:06;0.50;;;0.50;;
44722;SDS011;30451;48.638;10.624;2023-09-19T04:18:32;0.98;;;0.60;;
44722;SDS011;30451;48.638;10.624;2023-09-19T04:20:59;0.73;;;0.60;;
44722;SDS011;30451;48.638;10.624;2023-09-19T04:23:27;0.50;;;0.50;;
44722;SDS011;30451;48.638;10.624;2023-09-19T04:25:53;0.65;;;0.52;;
44722;SDS011;30451;48.638;10.624;2023-09-19T04:28:19;0.52;;;0.52;;
44722;SDS011;30451;48.638;10.624;2023-09-19T04:30:45;0.88;;;0.70;;
44722;SDS011;30451;48.638;10.624;2023-09-19T04:33:10;0.50;;;0.50;;
44722;SDS011;30451;48.638;10.624;2023-09-19T04:35:39;0.93;;;0.60;;
44722;SDS011;30451;48.638;10.624;2023-09-19T04:38:07;0.80;;;0.70;;
44722;SDS011;30451;48.638;10.624;2023-09-19T04:40:33;0.80;;;0.63;;
44722;SDS011;30451;48.638;10.624;2023-09-19T04:42:59;0.93;;;0.60;;
44722;SDS011;30451;48.638;10.624;2023-09-19T04:45:25;0.70;;;0.70;;
44722;SDS011;30451;48.638;10.624;2023-09-19T04:47:52;0.60;;;0.57;;
44722;SDS011;30451;48.638;10.624;2023-09-19T04:50:18;0.57;;;0.50;;
44722;SDS011;30451;48.638;10.624;2023-09-19T04:52:44;1.98;;;0.70;;
44722;SDS011;30451;48.638;10.624;2023-09-19T04:55:11;1.02;;;0.68;;
44722;SDS011;30451;48.638;10.624;2023-09-19T04:57:42;0.60;;;0.50;;
44722;SDS011;30451;48.638;10.624;2023-09-19T05:00:10;1.13;;;0.70;;
44722;SDS011;30451;48.638;10.624;2023-09-19T05:02:40;1.17;;;0.60;;
44722;SDS011;30451;48.638;10.624;2023-09-19T05:05:07;1.50;;;0.75;;
44722;SDS011;30451;48.638;10.624;2023-09-19T05:07:33;0.82;;;0.70;;
44722;SDS011;30451;48.638;10.624;2023-09-19T05:09:59;0.70;;;0.70;;
44722;SDS011;30451;48.638;10.624;2023-09-19T05:12:28;1.58;;;0.70;;
44722;SDS011;30451;48.638;10.624;2023-09-19T05:17:20;1.00;;;0.73;;
44722;SDS011;30451;48.638;10.624;2023-09-19T05:19:46;0.95;;;0.70;;
44722;SDS011;30451;48.638;10.624;2023-09-19T05:22:12;1.02;;;0.80;;
44722;SDS011;30451;48.638;10.624;2023-09-19T05:24:37;0.73;;;0.65;;
44722;SDS011;30451;48.638;10.624;2023-09-19T05:27:04;0.60;;;0.60;;
44722;SDS011;30451;48.638;10.624;2023-09-19T05:29:32;1.13;;;0.70;;
44722;SDS011;30451;48.638;10.624;2023-09-19T05:31:58;0.82;;;0.57;;
44722;SDS011;30451;48.638;10.624;2023-09-19T05:34:24;0.98;;;0.70;;
44722;SDS011;30451;48.638;10.624;2023-09-19T05:36:53;0.95;;;0.75;;
44722;SDS011;30451;48.638;10.624;2023-09-19T05:39:19;1.02;;;0.60;;
44722;SDS011;30451;48.638;10.624;2023-09-19T05:41:45;1.08;;;0.70;;
44722;SDS011;30451;48.638;10.624;2023-09-19T05:44:12;1.20;;;0.70;;
44722;SDS011;30451;48.638;10.624;2023-09-19T05:46:39;0.70;;;0.70;;
44722;SDS011;30451;48.638;10.624;2023-09-19T05:49:04;1.00;;;0.70;;
44722;SDS011;30451;48.638;10.624;2023-09-19T05:51:30;0.70;;;0.60;;
44722;SDS011;30451;48.638;10.624;2023-09-19T05:53:56;0.70;;;0.70;;
44722;SDS011;30451;48.638;10.624;2023-09-19T05:56:22;1.40;;;0.77;;
44722;SDS011;30451;48.638;10.624;2023-09-19T05:58:48;1.02;;;0.70;;
44722;SDS011;30451;48.638;10.624;2023-09-19T06:01:14;1.30;;;0.80;;
44722;SDS011;30451;48.638;10.624;2023-09-19T06:03:40;0.95;;;0.80;;
44722;SDS011;30451;48.638;10.624;2023-09-19T06:06:06;1.60;;;0.80;;
44722;SDS011;30451;48.638;10.624;2023-09-19T06:08:32;1.90;;;0.70;;
44722;SDS011;30451;48.638;10.624;2023-09-19T06:10:58;1.38;;;0.73;;
44722;SDS011;30451;48.638;10.624;2023-09-19T06:13:24;1.17;;;0.85;;
44722;SDS011;30451;48.638;10.624;2023-09-19T06:15:52;1.05;;;0.80;;
44722;SDS011;30451;48.638;10.624;2023-09-19T06:18:18;1.40;;;0.90;;
44722;SDS011;30451;48.638;10.624;2023-09-19T06:20:47;1.60;;;0.90;;
44722;SDS011;30451;48.638;10.624;2023-09-19T06:23:13;1.70;;;0.90;;
44722;SDS011;30451;48.638;10.624;2023-09-19T06:25:39;2.97;;;0.90;;
44722;SDS011;30451;48.638;10.624;2023-09-19T06:28:05;0.95;;;0.73;;
44722;SDS011;30451;48.638;10.624;2023-09-19T06:30:33;1.15;;;0.80;;
44722;SDS011;30451;48.638;10.624;2023-09-19T06:33:00;1.45;;;0.80;;
44722;SDS011;30451;48.638;10.624;2023-09-19T06:35:26;1.25;;;0.90;;
44722;SDS011;30451;48.638;10.624;2023-09-19T06:37:54;1.10;;;0.80;;
44722;SDS011;30451;48.638;10.624;2023-09-19T06:40:22;1.20;;;0.80;;
44722;SDS011;30451;48.638;10.624;2023-09-19T06:42:52;1.58;;;0.82;;
44722;SDS011;30451;48.638;10.624;2023-09-19T06:45:19;0.98;;;0.70;;
44722;SDS011;30451;48.638;10.624;2023-09-19T06:47:46;2.35;;;0.90;;
44722;SDS011;30451;48.638;10.624;2023-09-19T06:50:16;1.25;;;0.90;;
44722;SDS011;30451;48.638;10.624;2023-09-19T06:52:47;1.38;;;0.80;;
44722;SDS011;30451;48.638;10.624;2023-09-19T06:55:15;1.27;;;0.80;;
44722;SDS011;30451;48.638;10.624;2023-09-19T06:57:44;1.00;;;0.80;;
44722;SDS011;30451;48.638;10.624;2023-09-19T07:00:10;1.75;;;0.75;;
44722;SDS011;30451;48.638;10.624;2023-09-19T07:02:54;1.83;;;0.90;;
44722;SDS011;30451;48.638;10.624;2023-09-19T07:05:19;2.00;;;0.90;;
44722;SDS011;30451;48.638;10.624;2023-09-19T07:07:46;1.70;;;1.00;;
44722;SDS011;30451;48.638;10.624;2023-09-19T07:10:12;1.70;;;1.05;;
44722;SDS011;30451;48.638;10.624;2023-09-19T07:12:39;2.00;;;1.08;;
44722;SDS011;30451;48.638;10.624;2023-09-19T07:15:06;2.42;;;1.20;;
44722;SDS011;30451;48.638;10.624;2023-09-19T07:17:32;2.20;;;1.20;;
44722;SDS011;30451;48.638;10.624;2023-09-19T07:19:58;1.65;;;1.08;;
44722;SDS011;30451;48.638;10.624;2023-09-19T07:22:24;3.13;;;1.00;;
44722;SDS011;30451;48.638;10.624;2023-09-19T07:24:51;1.52;;;1.02;;
44722;SDS011;30451;48.638;10.624;2023-09-19T07:27:17;2.20;;;1.05;;
44722;SDS011;30451;48.638;10.624;2023-09-19T07:29:43;2.95;;;1.10;;
44722;SDS011;30451;48.638;10.624;2023-09-19T07:32:09;2.75;;;1.00;;
44722;SDS011;30451;48.638;10.624;2023-09-19T07:34:36;1.30;;;0.80;;
44722;SDS011;30451;48.638;10.624;2023-09-19T07:37:05;2.00;;;1.00;;
44722;SDS011;30451;48.638;10.624;2023-09-19T07:39:31;1.83;;;0.82;;
44722;SDS011;30451;48.638;10.624;2023-09-19T07:41:56;2.00;;;0.90;;
44722;SDS011;30451;48.638;10.624;2023-09-19T07:44:23;1.70;;;1.10;;
44722;SDS011;30451;48.638;10.624;2023-09-19T07:46:50;2.30;;;1.00;;
44722;SDS011;30451;48.638;10.624;2023-09-19T07:49:17;2.05;;;1.02;;
44722;SDS011;30451;48.638;10.624;2023-09-19T07:51:43;1.40;;;0.98;;
44722;SDS011;30451;48.638;10.624;2023-09-19T07:54:11;2.13;;;1.10;;
44722;SDS011;30451;48.638;10.624;2023-09-19T07:56:37;1.42;;;0.93;;
44722;SDS011;30451;48.638;10.624;2023-09-19T07:59:03;2.28;;;1.05;;
44722;SDS011;30451;48.638;10.624;2023-09-19T08:01:29;1.67;;;1.00;;
44722;SDS011;30451;48.638;10.624;2023-09-19T08:03:54;1.80;;;1.10;;
44722;SDS011;30451;48.638;10.624;2023-09-19T08:06:20;1.80;;;1.10;;
44722;SDS011;30451;48.638;10.624;2023-09-19T08:08:45;1.75;;;1.08;;
44722;SDS011;30451;48.638;10.624;2023-09-19T08:11:11;2.50;;;1.00;;
44722;SDS011;30451;48.638;10.624;2023-09-19T08:13:40;1.98;;;0.93;;
44722;SDS011;30451;48.638;10.624;2023-09-19T08:16:12;1.73;;;0.95;;
44722;SDS011;30451;48.638;10.624;2023-09-19T08:18:40;2.03;;;0.90;;
44722;SDS011;30451;48.638;10.624;2023-09-19T08:21:06;1.58;;;1.13;;
44722;SDS011;30451;48.638;10.624;2023-09-19T08:26:01;2.20;;;1.02;;
44722;SDS011;30451;48.638;10.624;2023-09-19T08:28:32;2.08;;;1.08;;
44722;SDS011;30451;48.638;10.624;2023-09-19T08:31:04;2.20;;;1.05;;
44722;SDS011;30451;48.638;10.624;2023-09-19T08:33:34;1.70;;;1.02;;
44722;SDS011;30451;48.638;10.624;2023-09-19T08:36:01;1.65;;;1.00;;
44722;SDS011;30451;48.638;10.624;2023-09-19T08:38:30;1.57;;;0.80;;
44722;SDS011;30451;48.638;10.624;2023-09-19T08:40:58;1.70;;;0.88;;
44722;SDS011;30451;48.638;10.624;2023-09-19T08:43:33;1.75;;;1.00;;
44722;SDS011;30451;48.638;10.624;2023-09-19T08:46:20;2.47;;;1.10;;
44722;SDS011;30451;48.638;10.624;2023-09-19T08:49:03;1.48;;;1.00;;
44722;SDS011;30451;48.638;10.624;2023-09-19T08:51:41;1.27;;;0.90;;
44722;SDS011;30451;48.638;10.624;2023-09-19T08:56:48;2.30;;;0.90;;
44722;SDS011;30451;48.638;10.624;2023-09-19T08:59:15;1.73;;;1.08;;
44722;SDS011;30451;48.638;10.624;2023-09-19T09:01:42;1.73;;;0.90;;
44722;SDS011;30451;48.638;10.624;2023-09-19T09:04:08;1.90;;;0.98;;
44722;SDS011;30451;48.638;10.624;2023-09-19T09:06:37;1.40;;;0.98;;
44722;SDS011;30451;48.638;10.624;2023-09-19T09:09:04;1.88;;;0.88;;
44722;SDS011;30451;48.638;10.624;2023-09-19T09:11:30;1.70;;;0.90;;
44722;SDS011;30451;48.638;10.624;2023-09-19T09:13:58;1.70;;;1.00;;
44722;SDS011;30451;48.638;10.624;2023-09-19T09:16:24;1.35;;;0.90;;
44722;SDS011;30451;48.638;10.624;2023-09-19T09:18:50;1.73;;;1.00;;
44722;SDS011;30451;48.638;10.624;2023-09-19T09:21:17;1.48;;;1.05;;
44722;SDS011;30451;48.638;10.624;2023-09-19T09:23:43;1.90;;;1.00;;
44722;SDS011;30451;48.638;10.624;2023-09-19T09:26:09;2.00;;;0.93;;
44722;SDS011;30451;48.638;10.624;2023-09-19T09:28:35;1.63;;;0.90;;
44722;SDS011;30451;48.638;10.624;2023-09-19T09:31:12;1.08;;;0.80;;
44722;SDS011;30451;48.638;10.624;2023-09-19T09:33:54;1.20;;;0.90;;
44722;SDS011;30451;48.638;10.624;2023-09-19T09:39:30;1.45;;;0.90;;
44722;SDS011;30451;48.638;10.624;2023-09-19T09:41:57;1.67;;;0.80;;
44722;SDS011;30451;48.638;10.624;2023-09-19T09:44:24;1.48;;;0.90;;
44722;SDS011;30451;48.638;10.624;2023-09-19T09:46:50;1.13;;;0.80;;
44722;SDS011;30451;48.638;10.624;2023-09-19T09:49:25;1.73;;;0.95;;
44722;SDS011;30451;48.638;10.624;2023-09-19T09:52:02;1.30;;;0.80;;
44722;SDS011;30451;48.638;10.624;2023-09-19T09:54:33;1.05;;;0.70;;
44722;SDS011;30451;48.638;10.624;2023-09-19T09:57:03;1.23;;;0.70;;
44722;SDS011;30451;48.638;10.624;2023-09-19T10:02:17;1.45;;;0.80;;
44722;SDS011;30451;48.638;10.624;2023-09-19T10:04:50;1.50;;;0.80;;
44722;SDS011;30451;48.638;10.624;2023-09-19T10:07:28;1.00;;;0.80;;
44722;SDS011;30451;48.638;10.624;2023-09-19T10:10:04;2.55;;;0.90;;
44722;SDS011;30451;48.638;10.624;2023-09-19T10:12:47;1.17;;;0.80;;
44722;SDS011;30451;48.638;10.624;2023-09-19T10:15:17;1.50;;;0.80;;
44722;SDS011;30451;48.638;10.624;2023-09-19T10:17:45;1.42;;;1.00;;
44722;SDS011;30451;48.638;10.624;2023-09-19T10:20:12;1.25;;;0.70;;
44722;SDS011;30451;48.638;10.624;2023-09-19T10:23:06;1.02;;;0.73;;
44722;SDS011;30451;48.638;10.624;2023-09-19T10:25:46;1.55;;;0.88;;
44722;SDS011;30451;48.638;10.624;2023-09-19T10:28:13;1.60;;;0.90;;
44722;SDS011;30451;48.638;10.624;2023-09-19T10:30:40;0.85;;;0.70;;
44722;SDS011;30451;48.638;10.624;2023-09-19T10:33:12;1.05;;;0.77;;
44722;SDS011;30451;48.638;10.624;2023-09-19T10:35:40;0.95;;;0.70;;
44722;SDS011;30451;48.638;10.624;2023-09-19T10:38:09;1.10;;;0.73;;
44722;SDS011;30451;48.638;10.624;2023-09-19T10:40:36;1.50;;;0.73;;
44722;SDS011;30451;48.638;10.624;2023-09-19T10:43:08;0.90;;;0.70;;
44722;SDS011;30451;48.638;10.624;2023-09-19T10:45:47;1.80;;;0.80;;
44722;SDS011;30451;48.638;10.624;2023-09-19T10:48:18;1.58;;;0.70;;
44722;SDS011;30451;48.638;10.624;2023-09-19T10:50:48;1.80;;;0.80;;
44722;SDS011;30451;48.638;10.624;2023-09-19T10:53:50;2.58;;;0.90;;
44722;SDS011;30451;48.638;10.624;2023-09-19T10:56:23;1.15;;;0.70;;
44722;SDS011;30451;48.638;10.624;2023-09-19T10:59:05;0.93;;;0.70;;
44722;SDS011;30451;48.638;10.624;2023-09-19T11:04:27;1.33;;;0.73;;
44722;SDS011;30451;48.638;10.624;2023-09-19T11:12:57;0.93;;;0.75;;
44722;SDS011;30451;48.638;10.624;2023-09-19T11:15:06;1.13;;;0.70;;
44722;SDS011;30451;48.638;10.624;2023-09-19T11:17:39;2.03;;;0.70;;
44722;SDS011;30451;48.638;10.624;2023-09-19T11:25:42;1.17;;;0.80;;
44722;SDS011;30451;48.638;10.624;2023-09-19T11:30:46;0.82;;;0.70;;
44722;SDS011;30451;48.638;10.624;2023-09-19T11:33:19;1.35;;;0.80;;
44722;SDS011;30451;48.638;10.624;2023-09-19T11:35:59;1.42;;;0.73;;
44722;SDS011;30451;48.638;10.624;2023-09-19T11:46:17;0.98;;;0.70;;
44722;SDS011;30451;48.638;10.624;2023-09-19T11:48:47;1.25;;;0.80;;
44722;SDS011;30451;48.638;10.624;2023-09-19T11:51:15;0.70;;;0.60;;
44722;SDS011;30451;48.638;10.624;2023-09-19T11:53:52;1.40;;;0.80;;
44722;SDS011;30451;48.638;10.624;2023-09-19T11:56:24;1.02;;;0.70;;
44722;SDS011;30451;48.638;10.624;2023-09-19T11:58:55;1.08;;;0.80;;
44722;SDS011;30451;48.638;10.624;2023-09-19T12:01:29;1.00;;;0.70;;
44722;SDS011;30451;48.638;10.624;2023-09-19T12:03:58;1.23;;;0.80;;
44722;SDS011;30451;48.638;10.624;2023-09-19T12:06:25;1.27;;;0.70;;
44722;SDS011;30451;48.638;10.624;2023-09-19T12:08:52;0.95;;;0.70;;
44722;SDS011;30451;48.638;10.624;2023-09-19T12:11:22;1.20;;;0.70;;
44722;SDS011;30451;48.638;10.624;2023-09-19T12:13:49;1.23;;;0.80;;
44722;SDS011;30451;48.638;10.624;2023-09-19T12:16:16;1.17;;;0.80;;
44722;SDS011;30451;48.638;10.624;2023-09-19T12:18:44;1.73;;;0.80;;
44722;SDS011;30451;48.638;10.624;2023-09-19T12:21:21;1.38;;;0.90;;
44722;SDS011;30451;48.638;10.624;2023-09-19T12:26:37;1.42;;;0.80;;
44722;SDS011;30451;48.638;10.624;2023-09-19T12:29:11;1.48;;;0.82;;
44722;SDS011;30451;48.638;10.624;2023-09-19T12:31:47;1.38;;;0.80;;
44722;SDS011;30451;48.638;10.624;2023-09-19T12:34:20;1.02;;;0.75;;
44722;SDS011;30451;48.638;10.624;2023-09-19T12:36:47;0.93;;;0.70;;
44722;SDS011;30451;48.638;10.624;2023-09-19T12:39:23;1.38;;;0.70;;
44722;SDS011;30451;48.638;10.624;2023-09-19T12:41:54;1.17;;;0.70;;
44722;SDS011;30451;48.638;10.624;2023-09-19T12:44:20;0.90;;;0.70;;
44722;SDS011;30451;48.638;10.624;2023-09-19T12:46:50;1.10;;;0.70;;
44722;SDS011;30451;48.638;10.624;2023-09-19T12:49:19;1.48;;;0.90;;
44722;SDS011;30451;48.638;10.624;2023-09-19T12:51:46;1.20;;;0.80;;
44722;SDS011;30451;48.638;10.624;2023-09-19T12:54:12;2.63;;;0.90;;
44722;SDS011;30451;48.638;10.624;2023-09-19T12:56:43;1.00;;;0.75;;
44722;SDS011;30451;48.638;10.624;2023-09-19T12:59:14;2.10;;;0.82;;
44722;SDS011;30451;48.638;10.624;2023-09-19T13:01:40;0.90;;;0.70;;
44722;SDS011;30451;48.638;10.624;2023-09-19T13:04:18;2.03;;;0.90;;
44722;SDS011;30451;48.638;10.624;2023-09-19T13:06:57;1.20;;;0.80;;
44722;SDS011;30451;48.638;10.624;2023-09-19T13:09:26;2.55;;;0.90;;
44722;SDS011;30451;48.638;10.624;2023-09-19T13:12:03;1.92;;;0.90;;
44722;SDS011;30451;48.638;10.624;2023-09-19T13:14:31;1.10;;;0.90;;
44722;SDS011;30451;48.638;10.624;2023-09-19T13:19:41;1.38;;;0.90;;
44722;SDS011;30451;48.638;10.624;2023-09-19T13:25:17;2.95;;;1.13;;
44722;SDS011;30451;48.638;10.624;2023-09-19T13:30:17;2.15;;;0.80;;
44722;SDS011;30451;48.638;10.624;2023-09-19T13:32:44;1.13;;;0.73;;
44722;SDS011;30451;48.638;10.624;2023-09-19T13:35:10;1.08;;;0.80;;
44722;SDS011;30451;48.638;10.624;2023-09-19T13:37:38;1.15;;;0.70;;
44722;SDS011;30451;48.638;10.624;2023-09-19T13:42:34;2.28;;;0.80;;
44722;SDS011;30451;48.638;10.624;2023-09-19T13:45:01;1.42;;;0.77;;
44722;SDS011;30451;48.638;10.624;2023-09-19T13:47:32;1.40;;;0.73;;
44722;SDS011;30451;48.638;10.624;2023-09-19T13:49:59;1.08;;;0.77;;
44722;SDS011;30451;48.638;10.624;2023-09-19T13:52:26;1.17;;;0.80;;
44722;SDS011;30451;48.638;10.624;2023-09-19T13:54:55;1.48;;;0.80;;
44722;SDS011;30451;48.638;10.624;2023-09-19T13:57:22;0.98;;;0.80;;
44722;SDS011;30451;48.638;10.624;2023-09-19T13:59:48;1.25;;;0.88;;
44722;SDS011;30451;48.638;10.624;2023-09-19T14:02:14;1.67;;;0.82;;
44722;SDS011;30451;48.638;10.624;2023-09-19T14:04:43;1.08;;;0.70;;
44722;SDS011;30451;48.638;10.624;2023-09-19T14:07:09;1.10;;;0.80;;
44722;SDS011;30451;48.638;10.624;2023-09-19T14:09:35;1.50;;;0.80;;
44722;SDS011;30451;48.638;10.624;2023-09-19T14:12:02;1.08;;;0.80;;
44722;SDS011;30451;48.638;10.624;2023-09-19T14:14:28;0.70;;;0.65;;
44722;SDS011;30451;48.638;10.624;2023-09-19T14:16:53;1.02;;;0.70;;
44722;SDS011;30451;48.638;10.624;2023-09-19T14:19:19;0.90;;;0.70;;
44722;SDS011;30451;48.638;10.624;2023-09-19T14:21:45;1.33;;;0.88;;
44722;SDS011;30451;48.638;10.624;2023-09-19T14:24:13;3.20;;;0.90;;
44722;SDS011;30451;48.638;10.624;2023-09-19T14:26:42;4.03;;;0.80;;
44722;SDS011;30451;48.638;10.624;2023-09-19T14:29:10;1.35;;;0.80;;
44722;SDS011;30451;48.638;10.624;2023-09-19T14:34:03;1.80;;;0.90;;
44722;SDS011;30451;48.638;10.624;2023-09-19T14:36:30;1.10;;;0.80;;
44722;SDS011;30451;48.638;10.624;2023-09-19T14:38:56;0.95;;;0.70;;
44722;SDS011;30451;48.638;10.624;2023-09-19T14:41:24;2.43;;;1.10;;
44722;SDS011;30451;48.638;10.624;2023-09-19T14:43:53;1.00;;;0.75;;
44722;SDS011;30451;48.638;10.624;2023-09-19T14:46:20;0.90;;;0.80;;
44722;SDS011;30451;48.638;10.624;2023-09-19T14:48:46;1.63;;;0.60;;
44722;SDS011;30451;48.638;10.624;2023-09-19T14:51:15;0.70;;;0.60;;
44722;SDS011;30451;48.638;10.624;2023-09-19T14:53:41;1.38;;;0.80;;
44722;SDS011;30451;48.638;10.624;2023-09-19T14:56:09;0.85;;;0.70;;
44722;SDS011;30451;48.638;10.624;2023-09-19T14:58:36;1.20;;;0.80;;
44722;SDS011;30451;48.638;10.624;2023-09-19T15:01:07;0.80;;;0.70;;
44722;SDS011;30451;48.638;10.624;2023-09-19T15:03:35;1.85;;;0.63;;
44722;SDS011;30451;48.638;10.624;2023-09-19T15:06:02;2.25;;;0.80;;
44722;SDS011;30451;48.638;10.624;2023-09-19T15:08:29;0.75;;;0.60;;
44722;SDS011;30451;48.638;10.624;2023-09-19T15:10:55;1.10;;;0.70;;
44722;SDS011;30451;48.638;10.624;2023-09-19T15:13:23;1.40;;;0.70;;
44722;SDS011;30451;48.638;10.624;2023-09-19T15:15:57;2.22;;;0.70;;
44722;SDS011;30451;48.638;10.624;2023-09-19T15:18:24;1.23;;;0.70;;
44722;SDS011;30451;48.638;10.624;2023-09-19T15:20:50;1.20;;;0.80;;
44722;SDS011;30451;48.638;10.624;2023-09-19T15:23:16;1.08;;;0.70;;
44722;SDS011;30451;48.638;10.624;2023-09-19T15:25:47;0.95;;;0.70;;
44722;SDS011;30451;48.638;10.624;2023-09-19T15:28:14;1.60;;;0.70;;
44722;SDS011;30451;48.638;10.624;2023-09-19T15:30:40;1.60;;;0.80;;
44722;SDS011;30451;48.638;10.624;2023-09-19T15:33:05;1.70;;;0.80;;
44722;SDS011;30451;48.638;10.624;2023-09-19T15:35:31;1.00;;;0.80;;
44722;SDS011;30451;48.638;10.624;2023-09-19T15:37:57;1.17;;;0.82;;
44722;SDS011;30451;48.638;10.624;2023-09-19T15:40:24;1.17;;;0.70;;
44722;SDS011;30451;48.638;10.624;2023-09-19T15:42:50;1.58;;;0.77;;
44722;SDS011;30451;48.638;10.624;2023-09-19T15:45:16;1.30;;;0.80;;
44722;SDS011;30451;48.638;10.624;2023-09-19T15:47:43;1.60;;;0.80;;
44722;SDS011;30451;48.638;10.624;2023-09-19T15:50:09;1.35;;;0.80;;